sensor_id;sensor_type;location;lat;lon;timestamp;pressure;altitude;pressure_sealevel;temperature;humidity
6345;BME280;3205;42.666;23.264;2023-02-26T00:00:41;93170.81;;;14.71;58.93
6345;BME280;3205;42.666;23.264;2023-02-26T00:03:08;93179.97;;;14.66;58.10
6345;BME280;3205;42.666;23.264;2023-02-26T00:05:34;93186.44;;;14.58;59.85
6345;BME280;3205;42.666;23.264;2023-02-26T00:08:00;93192.16;;;14.53;58.52
6345;BME280;3205;42.666;23.264;2023-02-26T00:10:27;93160.25;;;14.57;60.84
6345;BME280;3205;42.666;23.264;2023-02-26T00:12:53;93163.69;;;14.50;61.14
6345;BME280;3205;42.666;23.264;2023-02-26T00:15:20;93132.97;;;14.39;60.93
6345;BME280;3205;42.666;23.264;2023-02-26T00:17:55;93176.59;;;14.52;57.63
6345;BME280;3205;42.666;23.264;2023-02-26T00:20:24;93160.28;;;14.43;60.29
6345;BME280;3205;42.666;23.264;2023-02-26T00:22:51;93130.31;;;14.35;59.51
6345;BME280;3205;42.666;23.264;2023-02-26T00:25:21;93148.13;;;14.42;61.68
6345;BME280;3205;42.666;23.264;2023-02-26T00:27:48;93149.31;;;14.34;60.40
6345;BME280;3205;42.666;23.264;2023-02-26T00:30:15;93140.56;;;14.40;58.18
6345;BME280;3205;42.666;23.264;2023-02-26T00:32:42;93131.84;;;14.40;59.36
6345;BME280;3205;42.666;23.264;2023-02-26T00:35:12;93168.28;;;14.36;59.67
6345;BME280;3205;42.666;23.264;2023-02-26T00:37:52;93131.44;;;14.38;59.00
6345;BME280;3205;42.666;23.264;2023-02-26T00:40:23;93123.88;;;14.36;58.85
6345;BME280;3205;42.666;23.264;2023-02-26T00:42:55;93128.06;;;14.30;59.96
6345;BME280;3205;42.666;23.264;2023-02-26T00:45:22;93148.56;;;14.30;60.47
6345;BME280;3205;42.666;23.264;2023-02-26T00:47:50;93148.16;;;14.31;60.44
6345;BME280;3205;42.666;23.264;2023-02-26T00:50:20;93120.09;;;14.30;57.31
6345;BME280;3205;42.666;23.264;2023-02-26T00:52:56;93111.34;;;14.33;58.58
6345;BME280;3205;42.666;23.264;2023-02-26T00:55:24;93130.75;;;14.27;58.47
6345;BME280;3205;42.666;23.264;2023-02-26T00:57:50;93134.88;;;14.35;56.81
6345;BME280;3205;42.666;23.264;2023-02-26T01:00:18;93140.59;;;14.30;57.84
6345;BME280;3205;42.666;23.264;2023-02-26T01:02:44;93133.75;;;14.25;58.84
6345;BME280;3205;42.666;23.264;2023-02-26T01:05:12;93096.59;;;14.15;58.78
6345;BME280;3205;42.666;23.264;2023-02-26T01:07:41;93107.16;;;14.32;56.85
6345;BME280;3205;42.666;23.264;2023-02-26T01:10:10;93125.03;;;14.28;58.29
6345;BME280;3205;42.666;23.264;2023-02-26T01:12:39;93133.78;;;14.22;58.80
6345;BME280;3205;42.666;23.264;2023-02-26T01:15:08;93111.75;;;14.28;57.44
6345;BME280;3205;42.666;23.264;2023-02-26T01:17:40;93069.59;;;14.30;57.18
6345;BME280;3205;42.666;23.264;2023-02-26T01:20:15;93088.97;;;14.27;58.32
6345;BME280;3205;42.666;23.264;2023-02-26T01:22:47;93116.28;;;14.31;58.03
6345;BME280;3205;42.666;23.264;2023-02-26T01:25:20;93101.88;;;14.22;57.51
6345;BME280;3205;42.666;23.264;2023-02-26T01:27:48;93116.31;;;14.17;57.32
6345;BME280;3205;42.666;23.264;2023-02-26T01:30:16;93095.78;;;14.32;56.30
6345;BME280;3205;42.666;23.264;2023-02-26T01:32:45;93098.47;;;14.25;57.10
6345;BME280;3205;42.666;23.264;2023-02-26T01:35:27;93073.81;;;14.17;57.90
6345;BME280;3205;42.666;23.264;2023-02-26T01:38:00;93092.78;;;14.09;57.90
6345;BME280;3205;42.666;23.264;2023-02-26T01:43:48;93081.44;;;14.12;57.70
6345;BME280;3205;42.666;23.264;2023-02-26T01:46:25;93095.47;;;13.99;58.57
6345;BME280;3205;42.666;23.264;2023-02-26T01:48:57;93108.41;;;14.00;58.41
6345;BME280;3205;42.666;23.264;2023-02-26T01:51:48;93069.69;;;13.96;57.18
6345;BME280;3205;42.666;23.264;2023-02-26T01:54:16;93080.31;;;13.99;57.23
6345;BME280;3205;42.666;23.264;2023-02-26T01:56:44;93093.22;;;13.97;57.12
6345;BME280;3205;42.666;23.264;2023-02-26T01:59:14;93064.75;;;13.94;57.14
6345;BME280;3205;42.666;23.264;2023-02-26T02:01:42;93054.13;;;13.94;56.29
6345;BME280;3205;42.666;23.264;2023-02-26T02:04:12;93042.00;;;13.90;57.09
6345;BME280;3205;42.666;23.264;2023-02-26T02:06:39;93040.50;;;13.82;57.20
6345;BME280;3205;42.666;23.264;2023-02-26T02:09:07;93057.56;;;13.88;56.86
6345;BME280;3205;42.666;23.264;2023-02-26T02:11:33;93029.50;;;13.83;56.44
6345;BME280;3205;42.666;23.264;2023-02-26T02:14:09;93046.97;;;13.81;57.01
6345;BME280;3205;42.666;23.264;2023-02-26T02:16:42;93054.16;;;13.80;56.80
6345;BME280;3205;42.666;23.264;2023-02-26T02:19:30;93046.59;;;13.75;56.21
6345;BME280;3205;42.666;23.264;2023-02-26T02:22:19;93060.25;;;13.70;57.20
6345;BME280;3205;42.666;23.264;2023-02-26T02:25:05;93024.19;;;13.80;56.00
6345;BME280;3205;42.666;23.264;2023-02-26T02:27:42;93020.44;;;13.74;57.28
6345;BME280;3205;42.666;23.264;2023-02-26T02:30:26;93017.75;;;13.81;56.11
6345;BME280;3205;42.666;23.264;2023-02-26T02:32:57;93011.25;;;13.92;55.96
6345;BME280;3205;42.666;23.264;2023-02-26T02:35:27;93002.53;;;13.88;55.46
6345;BME280;3205;42.666;23.264;2023-02-26T02:37:57;92972.19;;;13.89;55.59
6345;BME280;3205;42.666;23.264;2023-02-26T02:40:29;93041.22;;;13.93;54.87
6345;BME280;3205;42.666;23.264;2023-02-26T02:43:00;93024.53;;;13.96;55.42
6345;BME280;3205;42.666;23.264;2023-02-26T02:45:31;93039.72;;;13.92;55.58
6345;BME280;3205;42.666;23.264;2023-02-26T02:48:04;93031.75;;;13.88;55.27
6345;BME280;3205;42.666;23.264;2023-02-26T02:50:34;93056.06;;;13.87;55.09
6345;BME280;3205;42.666;23.264;2023-02-26T02:53:07;93060.22;;;13.88;55.75
6345;BME280;3205;42.666;23.264;2023-02-26T02:55:36;93048.78;;;13.98;55.38
6345;BME280;3205;42.666;23.264;2023-02-26T02:58:05;93038.59;;;13.89;55.08
6345;BME280;3205;42.666;23.264;2023-02-26T03:00:35;93055.31;;;13.83;54.94
6345;BME280;3205;42.666;23.264;2023-02-26T03:03:09;93047.72;;;13.81;54.85
6345;BME280;3205;42.666;23.264;2023-02-26T03:05:39;93038.22;;;13.84;54.75
6345;BME280;3205;42.666;23.264;2023-02-26T03:08:07;93049.63;;;13.77;55.30
6345;BME280;3205;42.666;23.264;2023-02-26T03:10:34;93051.16;;;13.75;54.06
6345;BME280;3205;42.666;23.264;2023-02-26T03:13:01;93075.03;;;13.85;54.55
6345;BME280;3205;42.666;23.264;2023-02-26T03:15:33;93057.97;;;13.79;54.38
6345;BME280;3205;42.666;23.264;2023-02-26T03:18:10;93062.91;;;13.77;54.29
6345;BME280;3205;42.666;23.264;2023-02-26T03:23:33;93066.72;;;13.69;54.36
6345;BME280;3205;42.666;23.264;2023-02-26T03:26:09;93051.16;;;13.68;55.15
6345;BME280;3205;42.666;23.264;2023-02-26T03:28:41;93059.53;;;13.63;55.75
6345;BME280;3205;42.666;23.264;2023-02-26T03:31:15;93054.22;;;13.63;55.50
6345;BME280;3205;42.666;23.264;2023-02-26T03:33:48;93061.03;;;13.60;55.58
6345;BME280;3205;42.666;23.264;2023-02-26T03:36:19;93073.94;;;13.62;55.88
6345;BME280;3205;42.666;23.264;2023-02-26T03:38:51;93075.47;;;13.59;55.20
6345;BME280;3205;42.666;23.264;2023-02-26T03:41:23;93077.75;;;13.61;55.60
6345;BME280;3205;42.666;23.264;2023-02-26T03:43:54;93054.59;;;13.51;56.37
6345;BME280;3205;42.666;23.264;2023-02-26T03:46:26;93069.78;;;13.50;56.57
6345;BME280;3205;42.666;23.264;2023-02-26T03:48:56;93059.16;;;13.47;57.74
6345;BME280;3205;42.666;23.264;2023-02-26T03:51:25;93044.38;;;13.46;58.26
6345;BME280;3205;42.666;23.264;2023-02-26T03:53:54;93059.19;;;13.43;57.94
6345;BME280;3205;42.666;23.264;2023-02-26T03:56:28;93058.06;;;13.37;58.67
6345;BME280;3205;42.666;23.264;2023-02-26T03:58:56;93066.75;;;13.28;59.98
6345;BME280;3205;42.666;23.264;2023-02-26T04:01:25;93022.41;;;13.32;59.28
6345;BME280;3205;42.666;23.264;2023-02-26T04:03:56;93037.56;;;13.34;59.04
6345;BME280;3205;42.666;23.264;2023-02-26T04:06:27;93041.75;;;13.39;58.79
6345;BME280;3205;42.666;23.264;2023-02-26T04:08:54;93054.63;;;13.40;57.70
6345;BME280;3205;42.666;23.264;2023-02-26T04:11:23;93029.59;;;13.41;58.26
6345;BME280;3205;42.666;23.264;2023-02-26T04:13:50;93057.28;;;13.40;58.62
6345;BME280;3205;42.666;23.264;2023-02-26T04:16:17;93047.78;;;13.39;58.07
6345;BME280;3205;42.666;23.264;2023-02-26T04:18:44;93040.59;;;13.47;57.68
6345;BME280;3205;42.666;23.264;2023-02-26T04:21:11;93052.72;;;13.55;56.14
6345;BME280;3205;42.666;23.264;2023-02-26T04:23:38;93042.44;;;13.57;57.14
6345;BME280;3205;42.666;23.264;2023-02-26T04:26:04;93027.69;;;13.59;56.09
6345;BME280;3205;42.666;23.264;2023-02-26T04:28:31;93012.09;;;13.61;55.77
6345;BME280;3205;42.666;23.264;2023-02-26T04:30:57;93016.69;;;13.57;56.68
6345;BME280;3205;42.666;23.264;2023-02-26T04:33:24;93004.56;;;13.53;55.77
6345;BME280;3205;42.666;23.264;2023-02-26T04:35:51;93011.75;;;13.59;55.88
6345;BME280;3205;42.666;23.264;2023-02-26T04:38:18;93004.53;;;13.56;55.20
6345;BME280;3205;42.666;23.264;2023-02-26T04:40:44;93007.59;;;13.58;55.20
6345;BME280;3205;42.666;23.264;2023-02-26T04:43:11;92999.59;;;13.62;55.05
6345;BME280;3205;42.666;23.264;2023-02-26T04:45:37;92994.31;;;13.58;54.73
6345;BME280;3205;42.666;23.264;2023-02-26T04:48:03;92988.22;;;13.61;53.50
6345;BME280;3205;42.666;23.264;2023-02-26T04:50:29;92998.41;;;13.70;53.03
6345;BME280;3205;42.666;23.264;2023-02-26T04:52:55;92972.63;;;13.74;52.63
6345;BME280;3205;42.666;23.264;2023-02-26T04:55:22;92986.28;;;13.76;52.96
6345;BME280;3205;42.666;23.264;2023-02-26T04:57:48;92995.00;;;13.76;53.01
6345;BME280;3205;42.666;23.264;2023-02-26T05:00:15;92988.53;;;13.77;52.80
6345;BME280;3205;42.666;23.264;2023-02-26T05:02:41;93002.53;;;13.88;50.70
6345;BME280;3205;42.666;23.264;2023-02-26T05:05:08;92976.31;;;13.97;51.35
6345;BME280;3205;42.666;23.264;2023-02-26T05:07:34;92975.59;;;13.93;50.87
6345;BME280;3205;42.666;23.264;2023-02-26T05:10:00;92953.91;;;14.02;50.67
6345;BME280;3205;42.666;23.264;2023-02-26T05:12:27;92973.25;;;14.06;51.28
6345;BME280;3205;42.666;23.264;2023-02-26T05:14:53;92962.22;;;14.10;50.41
6345;BME280;3205;42.666;23.264;2023-02-26T05:17:19;92970.22;;;14.04;51.05
6345;BME280;3205;42.666;23.264;2023-02-26T05:19:45;92967.59;;;14.00;51.05
6345;BME280;3205;42.666;23.264;2023-02-26T05:22:11;92947.78;;;14.08;50.56
6345;BME280;3205;42.666;23.264;2023-02-26T05:24:38;92965.25;;;14.09;50.66
6345;BME280;3205;42.666;23.264;2023-02-26T05:27:04;92940.22;;;14.10;52.57
6345;BME280;3205;42.666;23.264;2023-02-26T05:29:31;92919.34;;;14.12;51.10
6345;BME280;3205;42.666;23.264;2023-02-26T05:31:57;92958.34;;;14.29;50.40
6345;BME280;3205;42.666;23.264;2023-02-26T05:34:23;92897.16;;;14.36;50.33
6345;BME280;3205;42.666;23.264;2023-02-26T05:36:49;92936.22;;;14.46;50.79
6345;BME280;3205;42.666;23.264;2023-02-26T05:39:16;92936.91;;;14.53;50.56
6345;BME280;3205;42.666;23.264;2023-02-26T05:41:42;92959.72;;;14.51;49.97
6345;BME280;3205;42.666;23.264;2023-02-26T05:44:08;92964.28;;;14.50;49.81
6345;BME280;3205;42.666;23.264;2023-02-26T05:46:34;92966.50;;;14.59;50.15
6345;BME280;3205;42.666;23.264;2023-02-26T05:49:00;92951.25;;;14.63;49.15
6345;BME280;3205;42.666;23.264;2023-02-26T05:51:26;92961.06;;;14.76;48.60
6345;BME280;3205;42.666;23.264;2023-02-26T05:53:53;92900.22;;;14.82;48.32
6345;BME280;3205;42.666;23.264;2023-02-26T05:56:19;92940.03;;;14.88;48.37
6345;BME280;3205;42.666;23.264;2023-02-26T05:58:46;92950.28;;;14.93;47.94
6345;BME280;3205;42.666;23.264;2023-02-26T06:01:13;92962.38;;;15.01;47.42
6345;BME280;3205;42.666;23.264;2023-02-26T06:03:40;92942.53;;;15.06;47.33
6345;BME280;3205;42.666;23.264;2023-02-26T06:06:08;92953.09;;;15.16;46.36
6345;BME280;3205;42.666;23.264;2023-02-26T06:08:34;92955.66;;;15.30;46.43
6345;BME280;3205;42.666;23.264;2023-02-26T06:11:00;92995.16;;;15.39;46.23
6345;BME280;3205;42.666;23.264;2023-02-26T06:13:26;92939.38;;;15.58;45.83
6345;BME280;3205;42.666;23.264;2023-02-26T06:15:53;92924.22;;;15.85;45.45
6345;BME280;3205;42.666;23.264;2023-02-26T06:18:19;92953.41;;;15.95;44.71
6345;BME280;3205;42.666;23.264;2023-02-26T06:20:45;92956.91;;;16.19;44.73
6345;BME280;3205;42.666;23.264;2023-02-26T06:23:12;92978.66;;;16.47;44.54
6345;BME280;3205;42.666;23.264;2023-02-26T06:25:39;92992.03;;;16.70;43.46
6345;BME280;3205;42.666;23.264;2023-02-26T06:28:06;92977.69;;;17.09;43.14
6345;BME280;3205;42.666;23.264;2023-02-26T06:30:32;92945.44;;;17.01;42.18
6345;BME280;3205;42.666;23.264;2023-02-26T06:32:58;92987.06;;;16.98;42.84
6345;BME280;3205;42.666;23.264;2023-02-26T06:35:24;92949.41;;;17.15;42.65
6345;BME280;3205;42.666;23.264;2023-02-26T06:37:51;92966.19;;;17.39;41.47
6345;BME280;3205;42.666;23.264;2023-02-26T06:40:17;92952.78;;;17.62;41.43
6345;BME280;3205;42.666;23.264;2023-02-26T06:42:43;92961.91;;;17.84;41.43
6345;BME280;3205;42.666;23.264;2023-02-26T06:45:10;92961.56;;;18.01;41.28
6345;BME280;3205;42.666;23.264;2023-02-26T06:47:38;92945.75;;;18.45;40.11
6345;BME280;3205;42.666;23.264;2023-02-26T06:50:05;92938.53;;;18.26;39.13
6345;BME280;3205;42.666;23.264;2023-02-26T06:52:31;92972.16;;;18.43;39.31
6345;BME280;3205;42.666;23.264;2023-02-26T06:54:58;92949.31;;;18.74;39.13
6345;BME280;3205;42.666;23.264;2023-02-26T06:57:24;92982.53;;;18.76;38.52
6345;BME280;3205;42.666;23.264;2023-02-26T06:59:50;92960.81;;;18.55;38.14
6345;BME280;3205;42.666;23.264;2023-02-26T07:02:19;92940.47;;;18.93;38.23
6345;BME280;3205;42.666;23.264;2023-02-26T07:04:46;92959.19;;;18.93;38.34
6345;BME280;3205;42.666;23.264;2023-02-26T07:07:12;92963.69;;;19.59;37.84
6345;BME280;3205;42.666;23.264;2023-02-26T07:09:38;92929.34;;;19.83;36.98
6345;BME280;3205;42.666;23.264;2023-02-26T07:12:05;92939.09;;;20.58;35.50
6345;BME280;3205;42.666;23.264;2023-02-26T07:14:32;92966.50;;;21.03;35.46
6345;BME280;3205;42.666;23.264;2023-02-26T07:16:58;92921.03;;;20.96;35.32
6345;BME280;3205;42.666;23.264;2023-02-26T07:19:25;92907.81;;;21.14;35.46
6345;BME280;3205;42.666;23.264;2023-02-26T07:21:51;92951.09;;;21.16;34.82
6345;BME280;3205;42.666;23.264;2023-02-26T07:24:19;92965.59;;;21.56;34.61
6345;BME280;3205;42.666;23.264;2023-02-26T07:26:45;92980.63;;;22.21;34.51
6345;BME280;3205;42.666;23.264;2023-02-26T07:29:12;92948.94;;;22.46;33.72
6345;BME280;3205;42.666;23.264;2023-02-26T07:31:38;92972.16;;;21.88;34.38
6345;BME280;3205;42.666;23.264;2023-02-26T07:34:05;92947.94;;;22.52;33.81
6345;BME280;3205;42.666;23.264;2023-02-26T07:36:31;92971.59;;;21.93;33.28
6345;BME280;3205;42.666;23.264;2023-02-26T07:38:57;92967.47;;;22.01;33.93
6345;BME280;3205;42.666;23.264;2023-02-26T07:41:23;92993.84;;;22.28;33.15
6345;BME280;3205;42.666;23.264;2023-02-26T07:43:49;92972.41;;;22.67;32.90
6345;BME280;3205;42.666;23.264;2023-02-26T07:46:16;92937.16;;;22.52;33.79
6345;BME280;3205;42.666;23.264;2023-02-26T07:48:42;92971.63;;;22.36;32.75
6345;BME280;3205;42.666;23.264;2023-02-26T07:51:08;92912.84;;;22.65;33.06
6345;BME280;3205;42.666;23.264;2023-02-26T07:53:35;92943.94;;;22.57;32.88
6345;BME280;3205;42.666;23.264;2023-02-26T07:56:02;92984.59;;;22.50;32.95
6345;BME280;3205;42.666;23.264;2023-02-26T07:58:28;92978.94;;;22.14;33.09
6345;BME280;3205;42.666;23.264;2023-02-26T08:00:54;92974.63;;;21.83;33.59
6345;BME280;3205;42.666;23.264;2023-02-26T08:03:21;92988.34;;;21.97;32.73
6345;BME280;3205;42.666;23.264;2023-02-26T08:05:47;92965.34;;;22.18;32.72
6345;BME280;3205;42.666;23.264;2023-02-26T08:08:13;92991.22;;;21.10;33.66
6345;BME280;3205;42.666;23.264;2023-02-26T08:10:39;92993.22;;;21.44;34.21
6345;BME280;3205;42.666;23.264;2023-02-26T08:13:06;92974.94;;;21.51;33.97
6345;BME280;3205;42.666;23.264;2023-02-26T08:15:32;92980.88;;;21.34;34.28
6345;BME280;3205;42.666;23.264;2023-02-26T08:17:58;92949.56;;;21.52;34.14
6345;BME280;3205;42.666;23.264;2023-02-26T08:20:25;92987.78;;;20.85;34.67
6345;BME280;3205;42.666;23.264;2023-02-26T08:22:51;93009.28;;;20.44;34.95
6345;BME280;3205;42.666;23.264;2023-02-26T08:25:18;92955.16;;;20.46;35.29
6345;BME280;3205;42.666;23.264;2023-02-26T08:27:44;92988.66;;;20.29;35.45
6345;BME280;3205;42.666;23.264;2023-02-26T08:30:11;92986.50;;;20.24;35.67
6345;BME280;3205;42.666;23.264;2023-02-26T08:32:37;93007.16;;;20.52;35.12
6345;BME280;3205;42.666;23.264;2023-02-26T08:35:07;93006.03;;;20.90;34.78
6345;BME280;3205;42.666;23.264;2023-02-26T08:37:33;93007.25;;;21.01;34.69
6345;BME280;3205;42.666;23.264;2023-02-26T08:40:00;92997.75;;;21.34;34.42
6345;BME280;3205;42.666;23.264;2023-02-26T08:42:26;92983.19;;;21.69;34.08
6345;BME280;3205;42.666;23.264;2023-02-26T08:44:52;93026.13;;;21.23;34.17
6345;BME280;3205;42.666;23.264;2023-02-26T08:47:18;93029.94;;;21.96;34.05
6345;BME280;3205;42.666;23.264;2023-02-26T08:49:44;93014.97;;;21.95;33.87
6345;BME280;3205;42.666;23.264;2023-02-26T08:52:11;93028.44;;;22.17;33.75
6345;BME280;3205;42.666;23.264;2023-02-26T08:54:37;93030.72;;;22.61;33.53
6345;BME280;3205;42.666;23.264;2023-02-26T08:57:04;93052.53;;;21.99;33.24
6345;BME280;3205;42.666;23.264;2023-02-26T08:59:30;93022.81;;;21.19;33.51
6345;BME280;3205;42.666;23.264;2023-02-26T09:01:56;93020.13;;;21.06;33.98
6345;BME280;3205;42.666;23.264;2023-02-26T09:04:22;93011.97;;;20.97;34.15
6345;BME280;3205;42.666;23.264;2023-02-26T09:06:48;93023.25;;;21.17;34.09
6345;BME280;3205;42.666;23.264;2023-02-26T09:09:14;93019.16;;;21.96;33.21
6345;BME280;3205;42.666;23.264;2023-02-26T09:11:41;93021.31;;;23.08;31.98
6345;BME280;3205;42.666;23.264;2023-02-26T09:14:07;93022.06;;;23.66;30.90
6345;BME280;3205;42.666;23.264;2023-02-26T09:16:34;93037.03;;;24.24;30.87
6345;BME280;3205;42.666;23.264;2023-02-26T09:19:01;93039.09;;;25.42;29.75
6345;BME280;3205;42.666;23.264;2023-02-26T09:21:28;93035.59;;;25.00;29.05
6345;BME280;3205;42.666;23.264;2023-02-26T09:23:54;93032.97;;;26.43;28.40
6345;BME280;3205;42.666;23.264;2023-02-26T09:26:20;93015.59;;;27.51;27.62
6345;BME280;3205;42.666;23.264;2023-02-26T09:28:47;93038.63;;;27.55;26.99
6345;BME280;3205;42.666;23.264;2023-02-26T09:31:13;93050.97;;;27.56;26.84
6345;BME280;3205;42.666;23.264;2023-02-26T09:33:39;93029.78;;;27.75;26.53
6345;BME280;3205;42.666;23.264;2023-02-26T09:36:06;93027.53;;;27.10;26.77
6345;BME280;3205;42.666;23.264;2023-02-26T09:38:32;93044.56;;;27.25;27.12
6345;BME280;3205;42.666;23.264;2023-02-26T09:41:03;93041.47;;;26.89;27.10
6345;BME280;3205;42.666;23.264;2023-02-26T09:43:52;93057.81;;;26.19;27.42
6345;BME280;3205;42.666;23.264;2023-02-26T09:46:29;93040.56;;;26.54;27.06
6345;BME280;3205;42.666;23.264;2023-02-26T09:49:04;93059.13;;;25.76;27.88
6345;BME280;3205;42.666;23.264;2023-02-26T09:51:33;93057.13;;;25.45;28.44
6345;BME280;3205;42.666;23.264;2023-02-26T09:54:14;93043.53;;;25.21;28.43
6345;BME280;3205;42.666;23.264;2023-02-26T09:56:42;93074.72;;;24.63;28.94
6345;BME280;3205;42.666;23.264;2023-02-26T09:59:10;93079.25;;;23.82;29.80
6345;BME280;3205;42.666;23.264;2023-02-26T10:01:39;93066.50;;;23.04;30.83
6345;BME280;3205;42.666;23.264;2023-02-26T10:04:19;93045.91;;;22.67;31.08
6345;BME280;3205;42.666;23.264;2023-02-26T10:06:58;93044.44;;;22.75;31.91
6345;BME280;3205;42.666;23.264;2023-02-26T10:09:44;93040.28;;;22.83;32.33
6345;BME280;3205;42.666;23.264;2023-02-26T10:12:15;93024.16;;;22.62;31.88
6345;BME280;3205;42.666;23.264;2023-02-26T10:14:47;93044.34;;;22.24;32.22
6345;BME280;3205;42.666;23.264;2023-02-26T10:17:20;93053.34;;;22.42;32.28
6345;BME280;3205;42.666;23.264;2023-02-26T10:19:51;93002.00;;;22.37;32.57
6345;BME280;3205;42.666;23.264;2023-02-26T10:22:23;93013.19;;;21.80;32.44
6345;BME280;3205;42.666;23.264;2023-02-26T10:24:57;93014.84;;;21.65;33.00
6345;BME280;3205;42.666;23.264;2023-02-26T10:27:37;93016.13;;;21.73;33.46
6345;BME280;3205;42.666;23.264;2023-02-26T10:30:10;93013.31;;;21.64;34.01
6345;BME280;3205;42.666;23.264;2023-02-26T10:32:44;93021.16;;;21.71;33.74
6345;BME280;3205;42.666;23.264;2023-02-26T10:35:16;93010.63;;;21.64;33.21
6345;BME280;3205;42.666;23.264;2023-02-26T10:37:50;92983.22;;;21.44;33.79
6345;BME280;3205;42.666;23.264;2023-02-26T10:40:22;92993.03;;;21.38;34.35
6345;BME280;3205;42.666;23.264;2023-02-26T10:42:53;92988.44;;;21.14;33.89
6345;BME280;3205;42.666;23.264;2023-02-26T10:45:31;93004.19;;;21.49;34.64
6345;BME280;3205;42.666;23.264;2023-02-26T10:48:08;93002.69;;;21.61;34.18
6345;BME280;3205;42.666;23.264;2023-02-26T10:50:43;93010.34;;;21.25;34.89
6345;BME280;3205;42.666;23.264;2023-02-26T10:53:11;93003.38;;;21.15;35.24
6345;BME280;3205;42.666;23.264;2023-02-26T10:55:40;92983.56;;;21.46;35.33
6345;BME280;3205;42.666;23.264;2023-02-26T10:58:12;92985.53;;;21.21;35.69
6345;BME280;3205;42.666;23.264;2023-02-26T11:00:40;92969.63;;;20.89;35.32
6345;BME280;3205;42.666;23.264;2023-02-26T11:03:09;92991.25;;;20.45;35.51
6345;BME280;3205;42.666;23.264;2023-02-26T11:05:38;92970.22;;;20.56;36.13
6345;BME280;3205;42.666;23.264;2023-02-26T11:08:14;92959.38;;;20.59;36.19
6345;BME280;3205;42.666;23.264;2023-02-26T11:10:46;92962.69;;;20.38;36.26
6345;BME280;3205;42.666;23.264;2023-02-26T11:13:12;92973.56;;;20.07;36.00
6345;BME280;3205;42.666;23.264;2023-02-26T11:15:39;92973.72;;;19.71;36.97
6345;BME280;3205;42.666;23.264;2023-02-26T11:18:11;92947.97;;;19.74;37.11
6345;BME280;3205;42.666;23.264;2023-02-26T11:20:41;92980.03;;;19.49;37.91
6345;BME280;3205;42.666;23.264;2023-02-26T11:23:11;92950.56;;;19.33;37.88
6345;BME280;3205;42.666;23.264;2023-02-26T11:25:39;92957.59;;;19.43;37.65
6345;BME280;3205;42.666;23.264;2023-02-26T11:28:09;92962.22;;;19.42;38.26
6345;BME280;3205;42.666;23.264;2023-02-26T11:30:45;92914.94;;;19.04;38.65
6345;BME280;3205;42.666;23.264;2023-02-26T11:33:17;92965.06;;;18.88;39.09
6345;BME280;3205;42.666;23.264;2023-02-26T11:35:44;92969.47;;;18.63;39.68
6345;BME280;3205;42.666;23.264;2023-02-26T11:38:17;92943.19;;;18.73;40.38
6345;BME280;3205;42.666;23.264;2023-02-26T11:40:46;92947.63;;;18.64;40.78
6345;BME280;3205;42.666;23.264;2023-02-26T11:43:14;92963.56;;;18.52;40.89
6345;BME280;3205;42.666;23.264;2023-02-26T11:45:46;92944.69;;;18.59;40.89
6345;BME280;3205;42.666;23.264;2023-02-26T11:48:22;92947.47;;;18.71;41.28
6345;BME280;3205;42.666;23.264;2023-02-26T11:50:52;92947.50;;;18.52;41.51
6345;BME280;3205;42.666;23.264;2023-02-26T11:53:24;92955.88;;;18.54;42.37
6345;BME280;3205;42.666;23.264;2023-02-26T11:55:52;92966.47;;;18.41;42.86
6345;BME280;3205;42.666;23.264;2023-02-26T11:58:24;92981.13;;;18.37;42.61
6345;BME280;3205;42.666;23.264;2023-02-26T12:00:52;92999.69;;;18.44;43.24
6345;BME280;3205;42.666;23.264;2023-02-26T12:03:21;93003.78;;;18.48;43.36
6345;BME280;3205;42.666;23.264;2023-02-26T12:05:47;92993.22;;;18.41;43.80
6345;BME280;3205;42.666;23.264;2023-02-26T12:08:20;93012.50;;;18.52;44.69
6345;BME280;3205;42.666;23.264;2023-02-26T12:10:59;93037.97;;;18.60;43.18
6345;BME280;3205;42.666;23.264;2023-02-26T12:13:36;93033.91;;;18.71;43.68
6345;BME280;3205;42.666;23.264;2023-02-26T12:16:13;93038.50;;;18.52;43.76
6345;BME280;3205;42.666;23.264;2023-02-26T12:18:53;93028.72;;;18.45;43.88
6345;BME280;3205;42.666;23.264;2023-02-26T12:21:34;93012.22;;;18.47;44.38
6345;BME280;3205;42.666;23.264;2023-02-26T12:24:27;93058.63;;;18.21;44.80
6345;BME280;3205;42.666;23.264;2023-02-26T12:27:05;93058.63;;;18.21;45.20
6345;BME280;3205;42.666;23.264;2023-02-26T12:29:48;93023.59;;;17.92;46.11
6345;BME280;3205;42.666;23.264;2023-02-26T12:32:33;93035.94;;;18.06;45.83
6345;BME280;3205;42.666;23.264;2023-02-26T12:35:28;93063.25;;;18.17;46.13
6345;BME280;3205;42.666;23.264;2023-02-26T12:38:07;93057.03;;;18.23;45.58
6345;BME280;3205;42.666;23.264;2023-02-26T12:40:45;93070.69;;;18.48;45.37
6345;BME280;3205;42.666;23.264;2023-02-26T12:43:20;93083.84;;;18.78;45.14
6345;BME280;3205;42.666;23.264;2023-02-26T12:45:52;93101.41;;;18.98;44.39
6345;BME280;3205;42.666;23.264;2023-02-26T12:48:52;93122.84;;;19.34;43.87
6345;BME280;3205;42.666;23.264;2023-02-26T12:51:31;93130.56;;;19.63;43.58
6345;BME280;3205;42.666;23.264;2023-02-26T12:54:13;93121.59;;;19.38;43.46
6345;BME280;3205;42.666;23.264;2023-02-26T13:00:01;93119.03;;;18.96;45.39
6345;BME280;3205;42.666;23.264;2023-02-26T13:05:41;93099.00;;;18.84;45.04
6345;BME280;3205;42.666;23.264;2023-02-26T13:08:18;93124.13;;;18.71;44.67
6345;BME280;3205;42.666;23.264;2023-02-26T13:10:54;93123.78;;;18.07;45.55
6345;BME280;3205;42.666;23.264;2023-02-26T13:13:44;93127.53;;;17.90;46.30
6345;BME280;3205;42.666;23.264;2023-02-26T13:16:24;93113.50;;;18.06;46.90
6345;BME280;3205;42.666;23.264;2023-02-26T13:19:16;93162.72;;;18.08;46.27
6345;BME280;3205;42.666;23.264;2023-02-26T13:21:48;93134.69;;;17.97;46.04
6345;BME280;3205;42.666;23.264;2023-02-26T13:24:19;93130.84;;;18.21;46.36
6345;BME280;3205;42.666;23.264;2023-02-26T13:26:47;93132.16;;;18.52;46.83
6345;BME280;3205;42.666;23.264;2023-02-26T13:29:16;93132.25;;;18.87;46.59
6345;BME280;3205;42.666;23.264;2023-02-26T13:31:47;93111.19;;;19.24;46.40
6345;BME280;3205;42.666;23.264;2023-02-26T13:34:18;93120.94;;;19.50;46.11
6345;BME280;3205;42.666;23.264;2023-02-26T13:36:48;93098.56;;;19.40;46.76